createdAt,value
2022-10-28T00:00:23.458Z,56.03
2022-10-28T00:03:26.658Z,46.75
2022-10-28T00:06:33.407Z,56.03
2022-10-28T00:09:36.616Z,34.40
2022-10-28T00:12:39.523Z,38.58
2022-10-28T00:15:42.998Z,35.88
2022-10-28T00:18:46.686Z,47.05
2022-10-28T00:21:49.474Z,48.20
2022-10-28T00:24:52.894Z,51.72
2022-10-28T00:27:56.108Z,55.72
2022-10-28T00:31:05.334Z,63.97
2022-10-28T00:34:14.797Z,60.30
2022-10-28T00:37:18.420Z,66.47
2022-10-28T00:40:22.515Z,56.63
2022-10-28T00:43:55.529Z,56.10
2022-10-28T00:46:59.506Z,46.47
2022-10-28T00:50:23.382Z,42.00
2022-10-28T00:53:33.178Z,49.50
2022-10-28T00:56:40.917Z,62.15
2022-10-28T00:59:49.404Z,67.38
2022-10-28T01:02:52.760Z,72.68
2022-10-28T01:05:56.136Z,76.30
2022-10-28T01:09:00.164Z,73.47
2022-10-28T01:12:28.629Z,79.63
2022-10-28T01:15:59.547Z,79.03
2022-10-28T01:19:21.095Z,78.20
2022-10-28T01:26:01.758Z,83.53
2022-10-28T01:29:05.234Z,83.23
2022-10-28T01:32:23.527Z,74.20
2022-10-28T01:38:54.366Z,60.53
2022-10-28T01:42:24.347Z,58.07
2022-10-28T01:45:34.858Z,68.72
2022-10-28T01:48:42.113Z,56.67
2022-10-28T01:51:55.712Z,58.47
2022-10-28T01:55:29.009Z,61.92
2022-10-28T01:58:34.433Z,50.27
2022-10-28T02:01:37.638Z,57.60
2022-10-28T02:04:40.534Z,57.55
2022-10-28T02:07:45.373Z,58.17
2022-10-28T02:11:22.730Z,62.78
2022-10-28T02:14:46.099Z,48.43
2022-10-28T02:17:54.411Z,45.60
2022-10-28T02:21:05.880Z,45.05
2022-10-28T02:24:20.534Z,37.15
2022-10-28T02:27:29.512Z,37.03
2022-10-28T02:30:47.734Z,37.87
2022-10-28T02:33:55.533Z,36.73
2022-10-28T02:37:02.201Z,37.03
2022-10-28T03:10:09.242Z,42.50
2022-10-28T03:13:12.394Z,39.13
2022-10-28T03:16:16.229Z,36.43
2022-10-28T03:19:19.409Z,37.80
2022-10-28T03:22:22.965Z,39.47
2022-10-28T03:25:26.415Z,40.17
2022-10-28T03:28:30.269Z,42.00
2022-10-28T03:31:33.893Z,46.80
2022-10-28T03:34:37.741Z,43.97
2022-10-28T03:37:44.663Z,39.90
2022-10-28T03:40:51.694Z,33.60
2022-10-28T03:43:54.648Z,50.40
2022-10-28T03:46:58.421Z,57.43
2022-10-28T03:50:01.625Z,42.23
2022-10-28T03:53:04.511Z,44.58
2022-10-28T03:56:08.289Z,54.15
2022-10-28T03:59:14.061Z,59.10
2022-10-28T04:02:19.948Z,59.43
2022-10-28T04:05:23.453Z,54.07
2022-10-28T04:08:26.916Z,61.30
2022-10-28T04:11:30.905Z,51.97
2022-10-28T04:14:34.304Z,46.78
2022-10-28T04:17:38.185Z,49.23
2022-10-28T04:20:41.678Z,61.63
2022-10-28T04:23:45.448Z,48.28
2022-10-28T04:26:48.514Z,50.45
2022-10-28T05:43:52.980Z,54.67
2022-10-28T05:46:56.242Z,49.90
2022-10-28T05:49:59.067Z,62.13
2022-10-28T05:53:01.899Z,57.60
2022-10-28T05:56:05.603Z,52.80
2022-10-28T05:59:08.514Z,58.13
2022-10-28T06:02:15.969Z,55.33
2022-10-28T06:05:18.797Z,46.00
2022-10-28T06:08:21.686Z,57.17
2022-10-28T06:11:23.208Z,60.10
2022-10-28T06:14:27.063Z,53.97
2022-10-28T06:17:30.335Z,66.65
2022-10-28T06:20:33.821Z,58.63
2022-10-28T06:23:36.694Z,56.47
2022-10-28T06:26:40.570Z,66.68
2022-10-28T06:29:43.907Z,55.90
2022-10-28T06:32:46.850Z,56.05
2022-10-28T06:35:49.982Z,57.30
2022-10-28T06:38:53.167Z,57.28
2022-10-28T06:41:56.302Z,65.57
2022-10-28T06:44:59.231Z,54.58
2022-10-28T06:48:06.839Z,55.65
2022-10-28T06:51:10.564Z,69.20
2022-10-28T06:54:13.873Z,54.40
2022-10-28T06:57:16.859Z,53.67
2022-10-28T07:00:20.994Z,58.47
2022-10-28T07:03:24.125Z,63.10
2022-10-28T07:06:28.175Z,54.00
2022-10-28T07:09:34.071Z,57.30
2022-10-28T07:12:37.988Z,67.60
2022-10-28T07:15:40.938Z,56.50
2022-10-28T07:18:44.886Z,58.97
2022-10-28T07:21:49.122Z,55.57
2022-10-28T07:24:52.812Z,61.40
2022-10-28T07:27:58.402Z,57.17
2022-10-28T07:31:05.532Z,43.20
2022-10-28T07:34:08.832Z,52.10
2022-10-28T07:37:13.911Z,53.97
2022-10-28T07:40:16.975Z,56.15
2022-10-28T07:43:21.256Z,55.40
2022-10-28T07:46:24.939Z,54.80
2022-10-28T07:49:28.812Z,56.67
2022-10-28T07:52:31.900Z,69.10
2022-10-28T07:55:34.930Z,79.50
2022-10-28T07:58:38.391Z,92.75
2022-10-28T08:01:41.400Z,96.40
2022-10-28T08:04:45.607Z,80.43
2022-10-28T08:07:48.641Z,64.67
2022-10-28T08:10:51.604Z,72.30
2022-10-28T08:13:56.427Z,83.25
2022-10-28T08:16:59.618Z,83.03
2022-10-28T08:20:02.632Z,88.15
2022-10-28T08:23:07.433Z,74.93
2022-10-28T08:26:10.570Z,85.93
2022-10-28T08:29:13.664Z,81.18
2022-10-28T08:32:17.815Z,85.05
2022-10-28T08:35:21.398Z,93.47
2022-10-28T08:38:24.327Z,79.17
2022-10-28T08:41:45.683Z,89.97
2022-10-28T08:45:00.747Z,96.38
2022-10-28T08:48:22.744Z,77.10
2022-10-28T08:51:37.572Z,83.90
2022-10-28T08:54:51.020Z,79.43
2022-10-28T08:57:59.282Z,81.00
2022-10-28T09:01:05.947Z,74.18
2022-10-28T09:04:37.979Z,79.72
2022-10-28T09:07:41.671Z,92.28
2022-10-28T09:11:26.377Z,114.53
2022-10-28T09:14:49.018Z,111.80
2022-10-28T09:18:05.073Z,104.05
2022-10-28T09:21:19.117Z,105.07
2022-10-28T09:24:34.675Z,113.60
2022-10-28T09:28:00.590Z,124.77
2022-10-28T09:31:16.561Z,110.93
2022-10-28T09:34:45.102Z,108.25
2022-10-28T09:38:09.502Z,136.60
2022-10-28T09:41:38.564Z,149.13
2022-10-28T09:45:14.885Z,140.53
2022-10-28T09:48:26.298Z,129.82
2022-10-28T09:51:39.085Z,122.28
2022-10-28T09:54:53.171Z,142.65
2022-10-28T09:57:57.296Z,107.57
2022-10-28T10:01:00.954Z,115.37
2022-10-28T10:04:17.654Z,114.60
2022-10-28T10:07:53.142Z,108.35
2022-10-28T10:11:23.069Z,109.63
2022-10-28T10:14:41.106Z,117.20
2022-10-28T10:17:49.508Z,90.93
2022-10-28T10:20:56.713Z,89.40
2022-10-28T10:24:00.401Z,89.03
2022-10-28T10:27:18.171Z,74.75
2022-10-28T10:30:29.156Z,78.53
2022-10-28T10:33:37.869Z,71.60
2022-10-28T10:36:50.378Z,85.93
2022-10-28T10:40:05.753Z,90.05
2022-10-28T10:43:18.436Z,91.05
2022-10-28T10:46:22.758Z,83.50
2022-10-28T10:49:26.193Z,78.23
2022-10-28T10:52:30.581Z,90.82
2022-10-28T10:55:37.764Z,87.80
2022-10-28T10:58:50.857Z,109.35
2022-10-28T11:01:55.940Z,118.20
2022-10-28T11:05:03.726Z,101.87
2022-10-28T11:08:08.225Z,94.45
2022-10-28T11:11:20.862Z,113.05
2022-10-28T11:14:27.355Z,110.40
2022-10-28T11:17:34.107Z,100.90
2022-10-28T11:21:08.073Z,99.13
2022-10-28T11:24:45.408Z,78.82
2022-10-28T11:28:05.728Z,97.07
2022-10-28T11:31:23.860Z,76.40
2022-10-28T11:34:55.691Z,69.70
2022-10-28T11:38:03.076Z,59.10
2022-10-28T11:41:22.262Z,54.15
2022-10-28T11:44:32.095Z,66.30
2022-10-28T11:47:38.386Z,76.80
2022-10-28T11:50:52.261Z,80.72
2022-10-28T11:54:06.049Z,93.37
2022-10-28T11:57:23.715Z,110.47
2022-10-28T12:00:42.453Z,101.78
2022-10-28T12:04:12.930Z,103.00
2022-10-28T12:07:43.051Z,83.63
2022-10-28T12:11:11.597Z,94.80
2022-10-28T12:14:53.337Z,129.40
2022-10-28T12:18:08.860Z,210.75
2022-10-28T12:21:25.956Z,178.93
2022-10-28T12:24:35.906Z,167.88
2022-10-28T12:27:43.686Z,177.67
2022-10-28T12:30:48.389Z,163.20
2022-10-28T12:33:57.104Z,163.55
2022-10-28T12:37:07.017Z,188.07
2022-10-28T12:40:16.830Z,253.15
2022-10-28T12:43:33.743Z,284.60
2022-10-28T12:47:05.404Z,211.70
2022-10-28T12:50:10.282Z,184.40
2022-10-28T12:53:36.400Z,187.18
2022-10-28T12:56:50.009Z,184.90
2022-10-28T13:00:02.162Z,141.10
2022-10-28T13:03:08.757Z,146.70
2022-10-28T13:06:30.885Z,136.25
2022-10-28T13:09:56.432Z,172.70
2022-10-28T13:13:30.535Z,207.57
2022-10-28T13:17:03.716Z,187.17
2022-10-28T13:20:16.343Z,162.35
2022-10-28T13:23:41.552Z,129.63
2022-10-28T13:26:46.309Z,125.70
2022-10-28T13:29:55.470Z,163.98
2022-10-28T13:33:10.223Z,172.73
2022-10-28T13:36:26.471Z,188.68
2022-10-28T13:39:30.217Z,165.38
2022-10-28T13:42:47.926Z,181.88
2022-10-28T13:45:54.884Z,147.10
2022-10-28T13:49:31.649Z,157.10
2022-10-28T13:52:45.429Z,159.65
2022-10-28T13:55:49.569Z,154.90
2022-10-28T13:58:59.071Z,135.70
2022-10-28T14:02:33.180Z,120.18
2022-10-28T14:05:38.675Z,158.17
2022-10-28T14:08:43.199Z,164.35
2022-10-28T14:11:47.217Z,162.63
2022-10-28T14:14:58.198Z,176.35
2022-10-28T14:18:42.412Z,176.70
2022-10-28T14:22:06.886Z,162.20
2022-10-28T14:25:41.766Z,164.77
2022-10-28T14:28:45.094Z,173.65
2022-10-28T14:31:48.783Z,176.85
2022-10-28T14:34:52.892Z,150.80
2022-10-28T14:38:06.632Z,177.47
2022-10-28T14:41:27.306Z,172.85
2022-10-28T14:44:44.851Z,178.63
2022-10-28T14:48:10.714Z,168.75
2022-10-28T14:51:18.669Z,168.70
2022-10-28T14:54:40.872Z,166.37
2022-10-28T14:57:45.691Z,176.40
2022-10-28T15:01:08.805Z,181.30
2022-10-28T15:04:14.605Z,193.88
2022-10-28T15:07:19.969Z,186.70
2022-10-28T15:10:32.303Z,201.37
2022-10-28T15:13:36.099Z,228.43
2022-10-28T15:16:48.366Z,239.15
2022-10-28T15:19:57.901Z,216.25
2022-10-28T15:23:23.782Z,220.13
2022-10-28T15:26:27.304Z,199.93
2022-10-28T15:29:31.566Z,171.65
2022-10-28T15:32:36.440Z,125.88
2022-10-28T15:35:41.202Z,152.52
2022-10-28T15:38:47.233Z,144.48
2022-10-28T15:41:54.793Z,140.20
2022-10-28T15:44:58.723Z,171.05
2022-10-28T15:48:05.374Z,168.85
2022-10-28T15:51:16.623Z,156.05
2022-10-28T15:54:22.530Z,152.63
2022-10-28T15:57:29.745Z,127.87
2022-10-28T16:00:34.638Z,124.85
2022-10-28T16:03:47.815Z,150.05
2022-10-28T16:06:57.300Z,163.18
2022-10-28T16:10:00.955Z,172.60
2022-10-28T16:13:09.111Z,172.50
2022-10-28T16:16:26.443Z,166.40
2022-10-28T16:19:33.451Z,168.32
2022-10-28T16:22:38.145Z,177.57
2022-10-28T16:25:41.034Z,159.98
2022-10-28T16:28:45.484Z,162.80
2022-10-28T16:31:53.183Z,167.57
2022-10-28T16:34:59.132Z,146.70
2022-10-28T16:38:12.813Z,164.05
2022-10-28T16:41:18.581Z,169.68
2022-10-28T16:44:23.164Z,168.53
2022-10-28T16:47:29.710Z,138.63
2022-10-28T16:50:33.203Z,167.35
2022-10-28T16:53:36.867Z,168.32
2022-10-28T16:56:39.664Z,152.43
2022-10-28T16:59:42.849Z,161.37
2022-10-28T17:02:47.749Z,143.35
2022-10-28T17:05:51.262Z,133.23
2022-10-28T17:09:02.964Z,124.65
2022-10-28T17:12:07.164Z,139.82
2022-10-28T17:15:10.942Z,139.33
2022-10-28T17:18:15.564Z,117.32
2022-10-28T17:21:19.078Z,105.38
2022-10-28T17:24:22.763Z,91.10
2022-10-28T17:27:26.412Z,82.25
2022-10-28T17:30:29.601Z,85.43
2022-10-28T17:33:33.841Z,76.65
2022-10-28T17:36:37.401Z,67.15
2022-10-28T17:39:43.023Z,78.07
2022-10-28T17:42:46.879Z,88.90
2022-10-28T17:45:50.010Z,84.83
2022-10-28T17:48:53.797Z,76.40
2022-10-28T17:51:57.274Z,83.30
2022-10-28T17:55:01.146Z,72.80
2022-10-28T17:58:04.265Z,87.38
2022-10-28T18:01:09.558Z,73.90
2022-10-28T18:04:13.097Z,83.40
2022-10-28T18:07:16.776Z,89.13
2022-10-28T18:10:19.610Z,88.97
2022-10-28T18:13:34.599Z,93.90
2022-10-28T18:16:38.271Z,95.73
2022-10-28T18:19:41.167Z,92.45
2022-10-28T18:22:44.671Z,95.63
2022-10-28T18:25:48.178Z,91.82
2022-10-28T18:28:51.090Z,99.93
2022-10-28T18:31:54.618Z,96.60
2022-10-28T18:34:57.480Z,92.05
2022-10-28T18:38:01.783Z,84.22
2022-10-28T18:41:04.636Z,80.63
2022-10-28T18:44:12.401Z,81.47
2022-10-28T18:47:15.222Z,83.50
2022-10-28T18:50:18.451Z,68.97
2022-10-28T18:53:22.262Z,76.00
2022-10-28T18:56:29.953Z,81.72
2022-10-28T18:59:35.132Z,79.65
2022-10-28T19:02:42.117Z,85.70
2022-10-28T19:05:47.683Z,70.28
2022-10-28T19:08:55.589Z,66.25
2022-10-28T19:11:59.012Z,65.65
2022-10-28T19:15:02.867Z,77.57
2022-10-28T19:18:05.732Z,66.37
2022-10-28T19:21:14.280Z,65.03
2022-10-28T19:24:17.108Z,66.18
2022-10-28T19:27:19.968Z,68.45
2022-10-28T19:30:22.732Z,63.47
2022-10-28T19:33:27.177Z,66.00
2022-10-28T19:36:31.144Z,83.55
2022-10-28T19:39:34.888Z,66.63
2022-10-28T19:42:39.414Z,63.10
2022-10-28T19:45:42.354Z,75.13
2022-10-28T19:48:47.621Z,59.00
2022-10-28T19:51:50.522Z,62.42
2022-10-28T19:54:53.358Z,60.55
2022-10-28T19:57:57.021Z,66.10
2022-10-28T20:01:02.292Z,64.38
2022-10-28T20:04:06.995Z,68.83
2022-10-28T20:07:10.081Z,66.25
2022-10-28T20:10:13.714Z,67.30
2022-10-28T20:13:17.109Z,65.00
2022-10-28T20:16:20.690Z,49.53
2022-10-28T20:19:24.307Z,60.70
2022-10-28T20:22:27.626Z,53.38
2022-10-28T20:25:31.120Z,58.08
2022-10-28T20:28:35.470Z,49.65
2022-10-28T20:31:39.432Z,42.80
2022-10-28T20:34:42.967Z,46.57
2022-10-28T20:37:46.147Z,43.03
2022-10-28T20:40:52.186Z,54.00
2022-10-28T20:43:56.455Z,46.63
2022-10-28T20:47:00.257Z,44.80
2022-10-28T20:50:03.923Z,45.23
2022-10-28T20:53:07.698Z,45.70
2022-10-28T20:56:16.909Z,49.33
2022-10-28T20:59:20.064Z,48.30
2022-10-28T21:02:23.145Z,56.17
2022-10-28T21:05:26.566Z,45.77
2022-10-28T21:08:30.523Z,40.78
2022-10-28T21:11:34.106Z,31.20
2022-10-28T21:14:37.387Z,27.92
2022-10-28T21:17:40.870Z,26.70
2022-10-28T21:20:44.408Z,29.13
2022-10-28T21:23:47.646Z,25.88
2022-10-28T21:26:52.160Z,19.33
2022-10-28T21:29:59.226Z,27.60
2022-10-28T21:33:03.174Z,24.13
2022-10-28T21:36:10.399Z,26.40
2022-10-28T21:39:13.159Z,27.83
2022-10-28T21:42:16.998Z,34.28
2022-10-28T21:45:20.096Z,34.30
2022-10-28T21:48:24.559Z,29.88
2022-10-28T21:51:27.396Z,29.07
2022-10-28T21:54:31.469Z,34.88
2022-10-28T21:57:34.524Z,29.80
2022-10-28T22:00:37.445Z,35.45
2022-10-28T22:03:41.177Z,62.47
2022-10-28T22:09:53.536Z,64.35
2022-10-28T22:12:56.805Z,62.03
2022-10-28T22:16:02.580Z,68.07
2022-10-28T22:19:09.121Z,67.97
2022-10-28T22:22:14.338Z,70.80
2022-10-28T22:25:17.415Z,69.72
2022-10-28T22:28:20.527Z,64.78
2022-10-28T22:31:27.613Z,78.25
2022-10-28T22:34:30.642Z,74.10
2022-10-28T22:37:34.383Z,85.67
2022-10-28T22:40:37.241Z,89.05
2022-10-28T22:43:42.686Z,96.53
2022-10-28T22:46:46.507Z,85.38
2022-10-28T22:49:50.037Z,100.40
2022-10-28T22:52:53.397Z,70.30
2022-10-28T22:55:58.019Z,71.40
2022-10-28T22:59:02.830Z,59.97
2022-10-28T23:02:06.635Z,62.50
2022-10-28T23:05:10.029Z,44.55
2022-10-28T23:08:16.668Z,46.43
2022-10-28T23:11:22.169Z,56.70
2022-10-28T23:14:25.231Z,38.88
2022-10-28T23:17:31.571Z,42.20
2022-10-28T23:20:36.340Z,33.78
2022-10-28T23:23:41.020Z,32.77
2022-10-28T23:26:44.121Z,28.10
2022-10-28T23:29:48.159Z,32.13
2022-10-28T23:32:51.371Z,32.47
2022-10-28T23:35:56.455Z,36.67
2022-10-28T23:39:00.473Z,40.00
2022-10-28T23:42:04.154Z,32.53
2022-10-28T23:45:10.089Z,31.73
2022-10-28T23:48:14.481Z,44.10
2022-10-28T23:51:19.820Z,36.30
2022-10-28T23:54:24.638Z,41.00
2022-10-28T23:57:28.570Z,44.58
